Time;durP1;ratioP1;P1;durP2;ratioP2;P2;SDS_P1;SDS_P2;PMS_P1;PMS_P2;Temp;Humidity;BMP_temperature;BMP_pressure;BME280_temperature;BME280_humidity;BME280_pressure;Samples;Min_cycle;Max_cycle;Signal;HPM_P1;HPM_P2
2023/01/14 00:01:28;;;;;;;11.37;2.67;;;8.50;99.90;;;;;;10488685;28;20865;-73
2023/01/14 00:06:32;;;;;;;11.90;2.80;;;8.50;99.90;;;;;;10468350;28;20278;-72
2023/01/14 00:11:50;;;;;;;10.57;2.80;;;8.50;99.90;;;;;;10488447;28;20229;-72
2023/01/14 00:16:52;;;;;;;8.10;2.40;;;8.40;99.90;;;;;;10476696;28;20224;-72
2023/01/14 00:21:56;;;;;;;8.77;2.70;;;8.40;99.90;;;;;;10482237;28;20226;-72
2023/01/14 00:26:58;;;;;;;13.10;2.87;;;8.50;99.90;;;;;;10490550;28;20300;-73
2023/01/14 00:32:03;;;;;;;10.93;2.53;;;8.40;99.90;;;;;;10470412;28;20249;-72
2023/01/14 00:37:04;;;;;;;7.70;2.20;;;8.40;99.90;;;;;;10465750;28;20255;-72
2023/01/14 00:42:04;;;;;;;9.73;2.57;;;8.30;99.90;;;;;;10426710;28;20219;-72
2023/01/14 00:47:05;;;;;;;10.23;2.83;;;8.30;99.90;;;;;;10451799;28;20341;-73
2023/01/14 00:52:05;;;;;;;11.87;2.67;;;8.20;99.90;;;;;;10448580;28;20234;-71
2023/01/14 00:57:06;;;;;;;11.40;2.40;;;8.10;99.90;;;;;;10463105;28;20728;-71
2023/01/14 01:02:07;;;;;;;9.97;2.50;;;7.90;99.90;;;;;;10482643;28;20248;-73
2023/01/14 01:07:08;;;;;;;11.17;2.53;;;7.90;99.90;;;;;;10457559;28;20222;-73
2023/01/14 01:12:08;;;;;;;8.97;2.60;;;7.80;99.90;;;;;;10470682;28;20235;-72
2023/01/14 01:17:09;;;;;;;16.33;3.37;;;7.80;99.90;;;;;;10473741;28;20333;-72
2023/01/14 01:22:09;;;;;;;16.00;3.33;;;7.90;99.90;;;;;;10487234;28;20247;-72
2023/01/14 01:27:10;;;;;;;10.87;2.90;;;7.90;99.90;;;;;;10478945;28;20250;-72
2023/01/14 01:32:11;;;;;;;14.20;2.87;;;8.00;99.90;;;;;;10473185;28;20233;-72
2023/01/14 01:37:12;;;;;;;9.23;2.73;;;7.90;99.90;;;;;;10464889;28;20236;-72
2023/01/14 01:42:14;;;;;;;14.87;2.93;;;7.90;99.90;;;;;;10456614;28;20220;-72
2023/01/14 01:47:18;;;;;;;14.60;3.20;;;7.90;99.90;;;;;;10450633;28;20742;-72
2023/01/14 01:52:25;;;;;;;14.63;2.47;;;7.90;99.90;;;;;;10482827;28;20248;-73
2023/01/14 01:57:26;;;;;;;13.07;2.63;;;7.80;99.90;;;;;;10464620;28;20242;-71
2023/01/14 02:02:28;;;;;;;10.90;2.83;;;7.60;99.90;;;;;;10477302;28;20303;-72
2023/01/14 02:07:29;;;;;;;12.93;3.10;;;7.50;99.90;;;;;;10469054;28;20238;-72
2023/01/14 02:12:36;;;;;;;14.47;2.97;;;7.40;99.90;;;;;;10488954;28;20230;-72
2023/01/14 02:17:52;;;;;;;14.00;2.90;;;7.30;99.90;;;;;;10487589;28;20262;-72
2023/01/14 02:23:11;;;;;;;13.10;3.87;;;7.40;99.90;;;;;;10471663;28;20937;-73
2023/01/14 02:28:21;;;;;;;9.73;2.70;;;7.40;99.90;;;;;;10482162;28;20270;-71
2023/01/14 02:33:41;;;;;;;12.33;3.20;;;7.40;99.90;;;;;;10459701;28;20236;-72
2023/01/14 02:38:51;;;;;;;14.53;2.80;;;7.40;99.90;;;;;;10487259;28;20273;-71
2023/01/14 02:44:07;;;;;;;11.23;2.50;;;7.40;99.90;;;;;;10485509;28;20215;-72
2023/01/14 02:49:10;;;;;;;13.97;2.90;;;7.30;99.90;;;;;;10468736;28;20227;-72
2023/01/14 02:54:12;;;;;;;12.93;2.87;;;7.30;99.90;;;;;;10491694;28;20725;-72
2023/01/14 02:59:15;;;;;;;11.80;2.53;;;7.30;99.90;;;;;;10482613;28;20274;-72
2023/01/14 03:04:50;;;;;;;11.33;2.77;;;7.20;99.90;;;;;;10467414;28;20302;-71
2023/01/14 03:10:11;;;;;;;13.30;2.67;;;7.10;99.90;;;;;;10457247;28;20219;-72
2023/01/14 03:15:52;;;;;;;8.73;2.10;;;7.00;99.90;;;;;;10463462;28;20238;-72
2023/01/14 03:21:01;;;;;;;13.80;2.90;;;6.80;99.90;;;;;;10467064;28;20218;-72
2023/01/14 03:26:06;;;;;;;15.27;3.20;;;6.70;99.90;;;;;;10467847;28;20482;-73
2023/01/14 03:31:10;;;;;;;15.50;2.67;;;6.60;99.90;;;;;;10469501;28;20277;-73
2023/01/14 03:36:12;;;;;;;15.97;3.33;;;6.60;99.90;;;;;;10464073;28;20286;-71
2023/01/14 03:46:39;;;;;;;17.37;3.00;;;6.50;99.90;;;;;;10455123;28;20214;-72
2023/01/14 03:52:12;;;;;;;13.00;2.80;;;6.50;99.90;;;;;;10467146;28;20220;-72
2023/01/14 03:57:24;;;;;;;11.47;2.70;;;6.40;99.90;;;;;;10496759;28;20319;-71
2023/01/14 04:02:27;;;;;;;16.03;3.10;;;6.40;99.90;;;;;;10464760;28;20224;-73
2023/01/14 04:07:27;;;;;;;14.83;3.47;;;6.40;99.90;;;;;;10457802;28;20231;-71
2023/01/14 04:12:28;;;;;;;16.13;3.50;;;6.40;99.90;;;;;;10483457;28;20659;-71
2023/01/14 04:17:28;;;;;;;11.00;3.10;;;6.40;99.90;;;;;;10473562;28;20229;-72
2023/01/14 04:22:29;;;;;;;15.57;3.20;;;6.40;99.90;;;;;;10469640;28;20376;-72
2023/01/14 04:27:30;;;;;;;12.17;3.30;;;6.40;99.90;;;;;;10476260;28;20236;-72
2023/01/14 04:32:30;;;;;;;11.20;2.93;;;6.40;99.90;;;;;;10469982;28;20309;-71
2023/01/14 04:37:31;;;;;;;17.77;3.07;;;6.40;99.90;;;;;;10494919;28;20210;-72
2023/01/14 04:42:32;;;;;;;12.53;2.60;;;6.40;99.90;;;;;;10472331;28;20232;-72
2023/01/14 04:47:32;;;;;;;11.87;3.13;;;6.40;99.90;;;;;;10489945;28;20235;-71
2023/01/14 04:52:33;;;;;;;16.60;3.50;;;6.40;99.90;;;;;;10483699;28;20231;-71
2023/01/14 04:57:34;;;;;;;14.97;3.73;;;6.50;99.90;;;;;;10470454;28;20865;-72
2023/01/14 05:02:34;;;;;;;12.23;3.23;;;6.60;99.90;;;;;;10459897;28;20234;-72
2023/01/14 05:07:35;;;;;;;17.83;2.53;;;6.60;99.90;;;;;;10509808;28;20215;-71
2023/01/14 05:12:35;;;;;;;12.47;3.10;;;6.60;99.90;;;;;;10487610;28;20280;-71
2023/01/14 05:17:36;;;;;;;15.80;3.30;;;6.60;99.90;;;;;;10481541;28;20690;-72
2023/01/14 05:22:36;;;;;;;18.60;3.80;;;6.60;99.90;;;;;;10484512;28;20926;-71
2023/01/14 05:27:37;;;;;;;12.73;3.43;;;6.60;99.90;;;;;;10471837;28;20273;-72
2023/01/14 05:32:37;;;;;;;14.40;3.47;;;6.60;99.90;;;;;;10478885;28;20366;-72
2023/01/14 05:37:38;;;;;;;11.47;3.67;;;6.70;99.90;;;;;;10481048;28;20225;-72
2023/01/14 05:47:59;;;;;;;19.67;5.97;;;6.70;99.90;;;;;;10501117;28;20215;-71
2023/01/14 05:53:00;;;;;;;13.67;3.27;;;6.70;99.90;;;;;;10499171;28;20218;-72
2023/01/14 05:58:02;;;;;;;13.17;3.20;;;6.70;99.90;;;;;;10465478;28;20985;-72
2023/01/14 06:08:22;;;;;;;13.50;2.50;;;6.80;99.90;;;;;;10486936;28;20207;-72
2023/01/14 06:13:23;;;;;;;14.83;3.30;;;6.80;99.90;;;;;;10467674;28;20228;-71
2023/01/14 06:18:23;;;;;;;11.73;3.03;;;6.90;99.90;;;;;;10479896;28;20217;-71
2023/01/14 06:23:24;;;;;;;11.83;2.93;;;7.00;99.90;;;;;;10481729;28;20213;-71
2023/01/14 06:28:26;;;;;;;16.80;3.17;;;7.00;99.90;;;;;;10457085;28;20684;-72
2023/01/14 06:33:27;;;;;;;15.03;3.23;;;7.00;99.90;;;;;;10484955;28;20706;-72
2023/01/14 06:38:30;;;;;;;13.57;3.03;;;7.00;99.90;;;;;;10490142;28;20214;-71
2023/01/14 06:43:31;;;;;;;12.97;3.20;;;7.00;99.90;;;;;;10498094;28;20227;-72
2023/01/14 06:48:31;;;;;;;12.47;2.63;;;7.00;99.90;;;;;;10482582;28;20211;-72
2023/01/14 06:53:33;;;;;;;10.13;2.57;;;7.00;99.90;;;;;;10497341;28;20225;-72
2023/01/14 06:58:33;;;;;;;16.70;3.63;;;6.90;99.90;;;;;;10477178;28;20233;-72
2023/01/14 07:03:34;;;;;;;8.47;2.77;;;6.90;99.90;;;;;;10487170;28;20222;-73
2023/01/14 07:08:35;;;;;;;12.80;2.87;;;6.90;99.90;;;;;;10488011;28;20275;-71
2023/01/14 07:13:35;;;;;;;11.27;2.57;;;6.90;99.90;;;;;;10475086;28;20685;-72
2023/01/14 07:18:36;;;;;;;14.57;3.03;;;6.90;99.90;;;;;;10462313;28;20274;-72
2023/01/14 07:23:36;;;;;;;12.37;2.87;;;6.90;99.90;;;;;;10491304;28;20223;-72
2023/01/14 07:28:37;;;;;;;16.33;3.00;;;7.00;99.90;;;;;;10463540;28;20243;-72
2023/01/14 07:33:37;;;;;;;6.80;2.10;;;7.10;99.90;;;;;;10473917;28;20234;-76
2023/01/14 07:38:38;;;;;;;9.30;2.67;;;7.20;99.90;;;;;;10473256;28;20262;-72
2023/01/14 07:43:38;;;;;;;7.93;2.40;;;7.20;99.90;;;;;;10483414;28;20273;-71
2023/01/14 07:48:40;;;;;;;10.57;2.27;;;7.30;99.90;;;;;;10468932;28;20222;-71
2023/01/14 07:53:44;;;;;;;6.73;2.40;;;7.30;99.90;;;;;;10464230;28;20231;-72
2023/01/14 07:58:47;;;;;;;12.70;2.60;;;7.40;99.90;;;;;;10484214;28;20306;-71
2023/01/14 08:03:47;;;;;;;10.10;2.20;;;7.40;99.90;;;;;;10476826;28;20226;-71
2023/01/14 08:08:48;;;;;;;8.50;2.83;;;7.50;99.90;;;;;;10487800;28;20219;-73
2023/01/14 08:13:51;;;;;;;8.63;2.10;;;7.60;99.90;;;;;;10460912;28;20603;-72
2023/01/14 08:18:52;;;;;;;10.50;2.70;;;7.70;99.90;;;;;;10472578;28;20221;-73
2023/01/14 08:23:52;;;;;;;12.30;2.90;;;7.80;99.90;;;;;;10460200;28;20223;-73
2023/01/14 08:28:53;;;;;;;8.53;2.43;;;7.80;99.90;;;;;;10466831;28;20223;-72
2023/01/14 08:33:55;;;;;;;12.40;2.50;;;7.80;99.90;;;;;;10491188;28;20297;-72
2023/01/14 08:38:55;;;;;;;13.40;2.90;;;7.90;99.90;;;;;;10484670;28;20223;-72
2023/01/14 08:43:56;;;;;;;8.50;2.40;;;7.90;99.90;;;;;;10488583;28;20700;-71
2023/01/14 08:48:58;;;;;;;9.90;2.63;;;8.00;99.90;;;;;;10508554;28;20217;-71
2023/01/14 08:54:01;;;;;;;13.57;2.67;;;8.10;99.90;;;;;;10481026;28;20309;-72
2023/01/14 08:59:02;;;;;;;14.83;2.90;;;8.10;99.90;;;;;;10507219;28;20225;-72
2023/01/14 09:04:03;;;;;;;12.10;2.57;;;7.90;99.90;;;;;;10469998;28;20758;-72
2023/01/14 09:19:50;;;;;;;7.70;2.37;;;8.00;99.90;;;;;;10477797;28;20704;-73
2023/01/14 09:24:52;;;;;;;11.80;2.70;;;8.10;99.90;;;;;;10471314;28;20218;-71
2023/01/14 09:29:52;;;;;;;12.97;2.63;;;8.20;99.90;;;;;;10469732;28;20213;-73
2023/01/14 09:34:53;;;;;;;9.20;2.80;;;8.20;99.90;;;;;;10497219;28;20244;-72
2023/01/14 09:39:53;;;;;;;14.30;2.60;;;8.20;99.90;;;;;;10475272;28;20768;-73
2023/01/14 09:45:23;;;;;;;10.00;2.50;;;8.30;99.90;;;;;;10487120;28;20222;-72
2023/01/14 09:50:50;;;;;;;7.47;2.57;;;8.40;99.90;;;;;;10464271;28;20223;-72
2023/01/14 09:56:01;;;;;;;14.80;3.47;;;8.50;99.90;;;;;;10477167;28;20242;-73
2023/01/14 10:01:33;;;;;;;8.23;1.80;;;8.50;99.90;;;;;;10448827;28;20258;-72
2023/01/14 10:06:35;;;;;;;10.43;2.60;;;8.50;99.90;;;;;;10474645;28;20216;-72
2023/01/14 10:11:42;;;;;;;8.17;2.50;;;8.50;99.90;;;;;;10471589;28;20679;-72
2023/01/14 10:16:45;;;;;;;12.23;2.63;;;8.50;99.90;;;;;;10457122;28;20341;-73
2023/01/14 10:22:07;;;;;;;6.40;2.40;;;8.50;99.90;;;;;;10447862;28;20227;-72
2023/01/14 10:27:18;;;;;;;8.03;2.40;;;8.50;99.90;;;;;;10465052;28;20217;-72
2023/01/14 10:32:20;;;;;;;10.10;2.37;;;8.60;99.90;;;;;;10454698;28;20236;-72
2023/01/14 10:37:21;;;;;;;9.10;1.83;;;8.60;99.90;;;;;;10486855;28;20228;-74
2023/01/14 10:42:27;;;;;;;8.27;2.13;;;8.70;99.90;;;;;;10488188;28;20590;-72
2023/01/14 10:47:29;;;;;;;6.30;1.93;;;8.80;99.90;;;;;;10455021;28;20222;-73
2023/01/14 10:52:33;;;;;;;8.10;2.30;;;8.90;99.90;;;;;;10468000;28;20759;-73
2023/01/14 10:57:36;;;;;;;9.07;2.00;;;8.90;99.90;;;;;;10488621;28;20312;-72
2023/01/14 11:02:39;;;;;;;8.03;1.93;;;8.90;99.90;;;;;;10452266;28;20321;-72
2023/01/14 11:07:43;;;;;;;6.00;1.97;;;9.00;99.90;;;;;;10490385;28;20237;-72
2023/01/14 11:12:44;;;;;;;5.23;1.80;;;9.10;99.90;;;;;;10475321;28;20238;-72
2023/01/14 11:17:44;;;;;;;5.33;1.70;;;9.10;99.90;;;;;;10453147;28;20613;-71
2023/01/14 11:22:59;;;;;;;6.67;1.97;;;9.10;99.90;;;;;;10467492;28;20227;-72
2023/01/14 11:28:04;;;;;;;6.80;1.90;;;9.10;99.90;;;;;;10466137;28;20222;-72
2023/01/14 11:33:05;;;;;;;6.87;1.60;;;9.20;99.90;;;;;;10459008;28;20249;-72
2023/01/14 11:38:14;;;;;;;5.67;1.50;;;9.10;99.90;;;;;;10468206;28;20334;-71
2023/01/14 11:43:15;;;;;;;5.90;1.60;;;9.20;99.90;;;;;;10471486;28;20458;-72
2023/01/14 11:48:28;;;;;;;2.00;1.13;;;9.20;99.90;;;;;;10468670;28;20469;-73
2023/01/14 11:53:49;;;;;;;4.20;1.47;;;9.20;99.90;;;;;;10478711;28;20729;-72
2023/01/14 11:58:50;;;;;;;5.53;1.47;;;9.20;99.90;;;;;;10460999;28;20234;-72
2023/01/14 12:04:41;;;;;;;4.67;2.23;;;9.20;99.90;;;;;;10480343;28;20223;-72
2023/01/14 12:10:11;;;;;;;4.63;1.77;;;9.20;99.90;;;;;;10379551;28;20269;-71
2023/01/14 12:20:37;;;;;;;5.63;1.80;;;9.30;99.90;;;;;;10472647;28;20631;-72
2023/01/14 12:25:43;;;;;;;3.53;1.40;;;9.30;99.90;;;;;;10479107;28;20222;-72
2023/01/14 12:31:14;;;;;;;4.90;1.63;;;9.40;99.90;;;;;;10501530;28;20229;-73
2023/01/14 12:36:46;;;;;;;3.37;2.00;;;9.40;99.90;;;;;;10469334;28;20297;-72
2023/01/14 12:47:21;;;;;;;4.53;1.47;;;9.50;99.90;;;;;;10489645;28;20298;-71
2023/01/14 12:52:32;;;;;;;5.43;1.70;;;9.50;99.90;;;;;;10472805;28;20239;-72
2023/01/14 12:57:39;;;;;;;5.50;1.73;;;9.50;99.90;;;;;;10478147;28;20945;-72
2023/01/14 13:02:45;;;;;;;10.30;4.17;;;9.60;99.90;;;;;;10466335;28;20223;-73
2023/01/14 13:07:53;;;;;;;5.60;1.97;;;9.60;99.90;;;;;;10491326;28;20227;-72
2023/01/14 13:12:53;;;;;;;6.20;1.60;;;9.70;99.90;;;;;;10449212;28;20281;-72
2023/01/14 13:17:57;;;;;;;3.00;1.10;;;9.70;99.90;;;;;;10476941;28;20222;-72
2023/01/14 13:23:01;;;;;;;3.23;1.07;;;9.80;99.90;;;;;;10474172;28;20322;-71
2023/01/14 13:28:10;;;;;;;3.83;1.00;;;9.80;99.90;;;;;;10473468;28;20227;-73
2023/01/14 13:33:22;;;;;;;2.30;1.20;;;9.60;99.90;;;;;;10475016;28;20783;-72
2023/01/14 13:38:28;;;;;;;3.43;1.50;;;9.60;99.90;;;;;;10479610;28;20226;-72
2023/01/14 13:43:29;;;;;;;3.33;1.77;;;9.50;99.90;;;;;;10465163;28;20226;-72
2023/01/14 13:48:36;;;;;;;3.17;1.33;;;9.50;99.90;;;;;;10451824;28;20219;-72
2023/01/14 13:53:37;;;;;;;5.87;1.70;;;9.40;99.90;;;;;;10483433;28;20232;-72
2023/01/14 13:58:48;;;;;;;5.40;1.40;;;9.40;99.90;;;;;;10474809;28;20223;-72
2023/01/14 14:03:50;;;;;;;2.77;1.10;;;9.30;99.90;;;;;;10466146;28;20225;-73
2023/01/14 14:09:03;;;;;;;3.87;1.10;;;9.20;99.90;;;;;;10480113;28;20277;-71
2023/01/14 14:14:06;;;;;;;2.90;1.30;;;9.20;99.90;;;;;;10479588;28;20231;-73
2023/01/14 14:19:09;;;;;;;2.70;1.20;;;9.10;99.90;;;;;;10480453;28;20640;-71
2023/01/14 14:24:20;;;;;;;3.67;1.20;;;9.10;99.90;;;;;;10467689;28;20250;-73
2023/01/14 14:29:23;;;;;;;3.23;1.20;;;9.20;99.90;;;;;;10459009;28;20227;-73
2023/01/14 14:34:24;;;;;;;3.13;1.20;;;9.20;99.90;;;;;;10501775;28;20265;-71
2023/01/14 14:39:32;;;;;;;3.73;1.10;;;9.30;99.90;;;;;;10491788;28;20260;-72
2023/01/14 14:44:33;;;;;;;3.23;1.30;;;9.30;99.90;;;;;;10434062;28;20215;-72
2023/01/14 14:49:40;;;;;;;1.97;1.20;;;9.40;99.90;;;;;;10473766;28;20584;-72
2023/01/14 14:54:42;;;;;;;2.90;1.37;;;9.30;99.90;;;;;;10475248;28;20222;-72
2023/01/14 14:59:43;;;;;;;3.70;1.30;;;9.30;99.90;;;;;;10474239;28;20678;-72
2023/01/14 15:04:45;;;;;;;1.90;1.10;;;9.20;99.90;;;;;;10471206;28;20206;-72
2023/01/14 15:09:47;;;;;;;3.47;1.27;;;9.30;99.90;;;;;;10472228;28;20217;-73
2023/01/14 15:14:56;;;;;;;3.03;1.13;;;9.30;99.90;;;;;;10475784;28;20637;-74
2023/01/14 15:19:57;;;;;;;3.73;1.27;;;9.40;99.90;;;;;;10472839;28;20702;-73
2023/01/14 15:25:00;;;;;;;4.87;1.30;;;9.40;99.90;;;;;;10470750;28;20229;-73
2023/01/14 15:30:17;;;;;;;3.30;1.10;;;9.50;99.90;;;;;;10473396;28;20226;-72
2023/01/14 15:35:30;;;;;;;2.97;1.20;;;9.40;99.90;;;;;;10474572;28;20774;-71
2023/01/14 15:40:37;;;;;;;2.33;1.30;;;9.40;99.90;;;;;;10470444;28;20226;-72
2023/01/14 15:45:42;;;;;;;3.80;1.20;;;9.40;99.90;;;;;;10470775;28;20226;-73
2023/01/14 15:50:54;;;;;;;1.67;1.10;;;9.50;99.90;;;;;;10470724;28;20713;-72
2023/01/14 15:56:05;;;;;;;4.30;1.10;;;9.50;99.90;;;;;;10470674;28;20246;-71
2023/01/14 16:01:26;;;;;;;2.53;1.27;;;9.50;99.90;;;;;;10438784;28;20277;-72
2023/01/14 16:06:34;;;;;;;3.10;1.20;;;9.50;99.90;;;;;;10450642;28;20230;-72
2023/01/14 16:11:42;;;;;;;2.30;1.30;;;9.50;99.90;;;;;;10437105;28;20211;-72
2023/01/14 16:16:42;;;;;;;3.70;1.30;;;9.60;99.90;;;;;;10443398;28;20327;-72
2023/01/14 16:21:43;;;;;;;2.83;1.17;;;9.60;99.90;;;;;;10433685;28;20310;-72
2023/01/14 16:26:44;;;;;;;2.40;1.13;;;9.60;99.90;;;;;;10441263;28;20713;-72
2023/01/14 16:31:45;;;;;;;2.40;1.00;;;9.60;99.90;;;;;;10441872;28;20224;-72
2023/01/14 16:36:47;;;;;;;5.03;1.47;;;9.60;99.90;;;;;;10443495;28;20710;-71
2023/01/14 16:41:48;;;;;;;2.30;1.10;;;9.60;99.90;;;;;;10450798;28;20232;-72
2023/01/14 16:46:49;;;;;;;1.70;1.20;;;9.50;99.90;;;;;;10445178;28;20232;-72
2023/01/14 16:51:50;;;;;;;3.33;1.27;;;9.50;99.90;;;;;;10450051;28;20673;-72
2023/01/14 16:56:50;;;;;;;3.33;1.60;;;9.50;99.90;;;;;;10443264;28;20647;-72
2023/01/14 17:01:51;;;;;;;4.93;2.07;;;9.50;99.90;;;;;;10436759;28;20238;-72
2023/01/14 17:06:51;;;;;;;3.43;1.47;;;9.50;99.90;;;;;;10441204;28;20231;-71
2023/01/14 17:17:11;;;;;;;2.70;1.40;;;9.60;99.90;;;;;;10448871;28;20227;-73
2023/01/14 17:22:12;;;;;;;3.13;1.50;;;9.60;99.90;;;;;;10442167;28;20220;-72
2023/01/14 17:27:13;;;;;;;5.43;1.60;;;9.60;99.90;;;;;;10425970;28;20307;-72
2023/01/14 17:32:14;;;;;;;2.93;1.40;;;9.60;99.90;;;;;;10432293;28;20225;-72
2023/01/14 17:37:16;;;;;;;3.60;1.17;;;9.70;99.90;;;;;;10440117;28;20226;-70
2023/01/14 17:42:18;;;;;;;7.23;2.97;;;9.70;99.90;;;;;;10448537;28;20218;-72
2023/01/14 17:47:21;;;;;;;6.47;2.90;;;9.70;99.90;;;;;;10443981;28;20224;-71
2023/01/14 17:52:22;;;;;;;5.63;2.87;;;9.60;99.90;;;;;;10447957;28;20267;-71
2023/01/14 17:57:22;;;;;;;4.13;2.23;;;9.40;99.90;;;;;;10443868;28;20230;-72
2023/01/14 18:02:24;;;;;;;3.77;1.87;;;9.30;99.90;;;;;;10437803;28;20222;-71
2023/01/14 18:07:25;;;;;;;3.37;1.80;;;9.20;99.90;;;;;;10447266;28;20835;-71
2023/01/14 18:12:26;;;;;;;2.60;1.70;;;9.10;99.90;;;;;;10440032;28;20272;-72
2023/01/14 18:17:26;;;;;;;3.63;1.83;;;9.10;99.90;;;;;;10432396;28;20239;-71
2023/01/14 18:22:27;;;;;;;2.03;1.60;;;9.10;99.90;;;;;;10455502;28;20222;-72
2023/01/14 18:27:27;;;;;;;3.70;1.60;;;9.10;99.90;;;;;;10435610;28;20250;-71
2023/01/14 18:32:28;;;;;;;3.20;1.73;;;9.20;99.90;;;;;;10439511;28;20263;-72
2023/01/14 18:37:29;;;;;;;3.43;1.50;;;9.30;99.90;;;;;;10439266;28;20243;-71
2023/01/14 18:42:31;;;;;;;2.50;1.47;;;9.30;99.90;;;;;;10434054;28;20306;-71
2023/01/14 18:47:32;;;;;;;3.73;1.40;;;9.40;99.90;;;;;;10446534;28;20588;-72
2023/01/14 18:52:32;;;;;;;3.87;1.70;;;9.40;99.90;;;;;;10444031;28;20218;-71
2023/01/14 18:57:33;;;;;;;3.00;1.63;;;9.50;99.90;;;;;;10445649;28;20234;-69
2023/01/14 19:02:35;;;;;;;3.10;1.30;;;9.50;99.90;;;;;;10440172;28;20207;-72
2023/01/14 19:07:35;;;;;;;2.53;1.40;;;9.60;99.90;;;;;;10430149;28;20668;-71
2023/01/14 19:12:36;;;;;;;3.23;1.70;;;9.60;99.90;;;;;;10439234;28;20321;-72
2023/01/14 19:17:37;;;;;;;2.67;1.70;;;9.60;99.90;;;;;;10440303;28;20227;-72
2023/01/14 19:22:37;;;;;;;3.60;1.70;;;9.60;99.90;;;;;;10438635;28;20235;-72
2023/01/14 19:27:39;;;;;;;3.00;1.60;;;9.70;99.90;;;;;;10443940;28;20618;-71
2023/01/14 19:32:42;;;;;;;1.73;1.30;;;9.70;99.90;;;;;;10456000;28;20226;-71
2023/01/14 19:37:42;;;;;;;2.73;1.30;;;9.70;99.90;;;;;;10448595;28;20227;-72
2023/01/14 19:42:46;;;;;;;2.03;1.47;;;9.70;99.90;;;;;;10449686;28;20234;-72
2023/01/14 19:47:46;;;;;;;2.30;1.50;;;9.70;99.90;;;;;;10452204;28;20219;-71
2023/01/14 19:52:47;;;;;;;3.90;1.40;;;9.80;99.90;;;;;;10445544;28;20223;-72
2023/01/14 19:57:47;;;;;;;4.17;1.60;;;9.80;99.90;;;;;;10448657;28;20293;-72
2023/01/14 20:02:50;;;;;;;2.53;1.30;;;9.80;99.90;;;;;;10457570;28;20230;-72
2023/01/14 20:07:53;;;;;;;1.63;1.30;;;9.90;99.90;;;;;;10449107;28;20346;-71
2023/01/14 20:12:55;;;;;;;3.00;1.33;;;9.80;99.90;;;;;;10445745;28;20242;-71
2023/01/14 20:17:56;;;;;;;4.30;1.43;;;9.90;99.90;;;;;;10448788;28;20254;-72
2023/01/14 20:22:57;;;;;;;3.43;1.30;;;9.80;99.90;;;;;;10445492;28;20226;-73
2023/01/14 20:28:00;;;;;;;1.43;1.30;;;9.80;99.90;;;;;;10444979;28;20574;-71
2023/01/14 20:33:00;;;;;;;2.43;1.20;;;9.80;99.90;;;;;;10438225;28;20243;-72
2023/01/14 20:38:02;;;;;;;2.10;1.20;;;9.90;99.90;;;;;;10438949;28;20262;-70
2023/01/14 20:43:06;;;;;;;2.20;1.40;;;9.90;99.90;;;;;;10447491;28;20597;-73
2023/01/14 20:48:22;;;;;;;3.33;1.50;;;9.90;99.90;;;;;;10442438;28;20570;-71
2023/01/14 20:53:24;;;;;;;4.47;1.50;;;9.90;99.90;;;;;;10446102;28;20235;-71
2023/01/14 20:59:22;;;;;;;2.43;1.30;;;9.90;99.90;;;;;;10440960;28;20258;-72
2023/01/14 21:03:47;;;;;;;2.33;1.10;;;9.90;99.90;;;;;;10437527;28;20240;-72
2023/01/14 21:08:47;;;;;;;1.13;1.10;;;9.90;99.90;;;;;;10448529;28;20346;-71
2023/01/14 21:24:35;;;;;;;2.60;1.30;;;10.00;99.90;;;;;;10444766;28;20242;-71
2023/01/14 21:29:36;;;;;;;1.60;1.30;;;10.00;99.90;;;;;;10434703;28;20224;-71
2023/01/14 21:34:36;;;;;;;1.70;1.07;;;10.00;99.90;;;;;;10443320;28;20251;-72
2023/01/14 21:39:37;;;;;;;2.97;1.37;;;10.00;99.90;;;;;;10440660;28;20232;-72
2023/01/14 21:44:37;;;;;;;1.43;1.30;;;9.90;99.90;;;;;;10443177;28;20285;-71
2023/01/14 21:49:38;;;;;;;2.40;1.23;;;10.00;99.90;;;;;;10448170;28;20223;-71
2023/01/14 21:54:38;;;;;;;3.30;1.73;;;10.00;99.90;;;;;;10446109;28;20215;-71
2023/01/14 21:59:39;;;;;;;2.20;1.60;;;10.00;99.90;;;;;;10441762;28;20771;-72
2023/01/14 22:04:40;;;;;;;1.53;0.97;;;10.10;99.90;;;;;;10438610;28;20273;-71
2023/01/14 22:09:41;;;;;;;2.40;1.33;;;10.10;99.90;;;;;;10435663;28;20220;-73
2023/01/14 22:14:41;;;;;;;1.30;1.07;;;10.10;99.90;;;;;;10438541;28;20302;-72
2023/01/14 22:19:43;;;;;;;1.40;1.00;;;10.10;99.90;;;;;;10439279;28;20228;-72
2023/01/14 22:24:44;;;;;;;2.43;1.00;;;10.10;99.90;;;;;;10447948;28;20224;-72
2023/01/14 22:29:44;;;;;;;1.33;0.90;;;10.10;99.90;;;;;;10441301;28;20230;-73
2023/01/14 22:34:45;;;;;;;1.50;0.97;;;10.10;99.90;;;;;;10451838;28;20530;-72
2023/01/14 22:39:46;;;;;;;1.43;1.20;;;10.00;99.90;;;;;;10436144;28;20238;-71
2023/01/14 22:44:47;;;;;;;2.30;1.20;;;9.90;99.90;;;;;;10443108;28;20311;-71
2023/01/14 22:49:47;;;;;;;1.20;1.10;;;9.90;99.90;;;;;;10445051;28;20780;-72
2023/01/14 22:54:49;;;;;;;3.10;1.07;;;10.00;99.90;;;;;;10444127;28;20250;-69
2023/01/14 22:59:50;;;;;;;1.73;1.07;;;10.00;99.90;;;;;;10446273;28;20227;-70
2023/01/14 23:04:51;;;;;;;3.00;1.17;;;9.90;99.90;;;;;;10445770;28;20222;-70
2023/01/14 23:09:51;;;;;;;1.43;1.10;;;9.90;99.90;;;;;;10451977;28;20627;-68
2023/01/14 23:14:52;;;;;;;1.73;1.20;;;9.90;99.90;;;;;;10462477;28;20298;-69
2023/01/14 23:19:53;;;;;;;3.30;1.13;;;9.80;99.90;;;;;;10446431;28;20223;-70
2023/01/14 23:24:54;;;;;;;2.07;1.30;;;9.90;99.90;;;;;;10445101;28;20591;-69
2023/01/14 23:29:55;;;;;;;1.83;1.23;;;9.80;99.90;;;;;;10447220;28;20280;-72
2023/01/14 23:34:57;;;;;;;1.93;1.33;;;9.80;99.90;;;;;;10450275;28;20247;-66
2023/01/14 23:39:57;;;;;;;1.63;1.17;;;9.80;99.90;;;;;;10452898;28;20219;-68
2023/01/14 23:44:58;;;;;;;2.33;1.27;;;9.80;99.90;;;;;;10449911;28;20231;-67
2023/01/14 23:49:58;;;;;;;2.83;1.40;;;9.80;99.90;;;;;;10453163;28;20239;-67
2023/01/14 23:54:59;;;;;;;2.03;1.30;;;9.80;99.90;;;;;;10433014;28;20223;-67
2023/01/14 23:59:59;;;;;;;2.30;1.40;;;9.80;99.90;;;;;;10444702;28;20455;-67
